Terminal Aerodrome Forecast
Issued by NWS Topeka, KS

Home | Current Version | Previous Version | Graphics & Text | Print | Product List | Glossary On
Versions: 1 2 3 4 5 6 7 8 9 10 11 12 13 14 15 16 17
000
FTUS43 KTOP 241126
TAFTOP
TAF
KTOP 241126Z 2412/2512 10008KT P6SM VCSH SCT025 SCT200
      WS020/21045KT
      TEMPO 2412/2413 04010KT
     FM241300 21012KT P6SM FEW040 BKN150
     FM242100 22008KT P6SM VCTS BKN040CB
     FM250000 36005KT 6SM -TSRA SCT015 BKN050CB=

USA.gov is the U.S. government's official web portal to all federal, state and local government web resources and services.